Time;durP1;ratioP1;P1;durP2;ratioP2;P2;SDS_P1;SDS_P2;PMS_P1;PMS_P2;Temp;Humidity;BMP_temperature;BMP_pressure;BME280_temperature;BME280_humidity;BME280_pressure;Samples;Min_cycle;Max_cycle;Signal;HPM_P1;HPM_P2
2022/06/24 00:01:42;;;;;;;297.80;20.33;;;;;;;20.18;48.88;99774.41;4478648;31;32468;-86
2022/06/24 00:04:10;;;;;;;9.63;1.58;;;;;;;20.32;48.63;99786.66;4476148;31;33222;-86
2022/06/24 00:06:49;;;;;;;4.53;1.87;;;;;;;20.21;49.07;99789.38;4478202;31;33931;-85
2022/06/24 00:09:17;;;;;;;1.83;1.40;;;;;;;20.23;49.14;99784.75;4479006;31;32632;-85
2022/06/24 00:11:45;;;;;;;3.12;1.90;;;;;;;20.11;49.34;99783.09;4477561;31;33336;-86
2022/06/24 00:14:17;;;;;;;3.92;1.70;;;;;;;20.09;49.58;99780.53;4469519;31;33589;-85
2022/06/24 00:17:07;;;;;;;2.53;2.22;;;;;;;19.77;50.52;99790.38;4489735;31;34771;-85
2022/06/24 00:19:51;;;;;;;3.35;1.45;;;;;;;19.98;49.99;99791.28;4479465;31;32970;-85
2022/06/24 00:22:20;;;;;;;3.67;1.70;;;;;;;19.97;49.93;99786.06;4471957;31;32694;-85
2022/06/24 00:24:48;;;;;;;3.03;1.48;;;;;;;19.85;50.58;99788.78;4464301;31;32743;-85
2022/06/24 00:27:19;;;;;;;2.67;1.80;;;;;;;19.92;49.90;99794.47;4478896;31;33936;-85
2022/06/24 00:29:48;;;;;;;5.35;1.98;;;;;;;19.84;49.78;99795.09;4490385;31;34215;-85
2022/06/24 00:32:28;;;;;;;2.95;1.85;;;;;;;19.74;50.38;99801.34;4467629;31;31881;-85
2022/06/24 00:35:02;;;;;;;3.12;1.73;;;;;;;19.81;50.08;99797.19;4486251;31;33505;-84
2022/06/24 00:37:31;;;;;;;2.75;1.90;;;;;;;19.73;50.14;99795.13;4489599;31;33494;-85
2022/06/24 00:40:09;;;;;;;1.95;1.55;;;;;;;19.79;49.37;99794.63;4478689;31;32315;-84
2022/06/24 00:42:41;;;;;;;3.40;1.98;;;;;;;19.81;49.72;99791.84;4489464;31;32352;-85
2022/06/24 00:45:32;;;;;;;2.95;1.85;;;;;;;19.83;49.53;99784.53;4492817;31;32282;-85
2022/06/24 00:48:13;;;;;;;2.85;1.80;;;;;;;19.69;49.51;99782.97;4494725;31;34434;-85
2022/06/24 00:50:46;;;;;;;1.52;1.40;;;;;;;19.79;48.97;99783.06;4479514;31;33608;-85
2022/06/24 00:53:16;;;;;;;3.42;1.60;;;;;;;19.92;48.18;99781.09;4478902;31;33631;-85
2022/06/24 00:55:46;;;;;;;5.45;2.17;;;;;;;19.91;48.15;99782.91;4465449;31;32416;-85
2022/06/24 00:58:15;;;;;;;3.58;2.00;;;;;;;19.64;49.11;99786.03;4477709;31;34436;-85
2022/06/24 01:00:49;;;;;;;7.70;1.85;;;;;;;19.69;48.38;99786.50;4481543;31;32451;-84
2022/06/24 01:03:17;;;;;;;3.42;2.30;;;;;;;19.77;47.63;99782.34;4487748;31;33186;-84
2022/06/24 01:05:48;;;;;;;3.35;1.95;;;;;;;19.72;48.54;99773.84;4493593;31;34317;-84
2022/06/24 01:08:17;;;;;;;3.40;2.05;;;;;;;19.63;48.10;99778.97;4476188;31;33089;-84
2022/06/24 01:10:48;;;;;;;3.75;2.10;;;;;;;19.58;48.46;99777.63;4475963;31;33845;-83
2022/06/24 01:13:17;;;;;;;2.67;2.00;;;;;;;19.42;48.67;99770.00;4465076;31;32660;-83
2022/06/24 01:15:44;;;;;;;2.20;2.00;;;;;;;19.49;48.15;99767.66;4465757;31;33160;-83
2022/06/24 01:18:12;;;;;;;5.50;1.60;;;;;;;19.69;46.71;99773.09;4480406;31;34195;-83
2022/06/24 01:20:41;;;;;;;2.87;1.60;;;;;;;19.81;46.12;99770.41;4495067;31;32748;-83
2022/06/24 01:23:12;;;;;;;2.72;2.22;;;;;;;19.81;45.71;99770.41;4478476;31;32934;-83
2022/06/24 01:25:40;;;;;;;3.30;2.03;;;;;;;19.64;47.38;99775.31;4465484;31;32418;-83
2022/06/24 01:28:08;;;;;;;4.55;1.77;;;;;;;20.08;46.74;99776.16;4466430;31;33623;-83
2022/06/24 01:30:35;;;;;;;2.12;1.77;;;;;;;20.12;46.60;99772.22;4475984;31;32785;-83
2022/06/24 01:33:09;;;;;;;3.47;1.58;;;;;;;19.93;47.42;99770.22;4462146;31;31891;-83
2022/06/24 01:35:36;;;;;;;5.28;2.45;;;;;;;19.95;47.85;99762.09;4491270;31;32661;-83
2022/06/24 01:38:06;;;;;;;5.72;2.20;;;;;;;20.05;47.55;99764.84;4477102;31;33984;-83
2022/06/24 01:40:34;;;;;;;5.30;1.80;;;;;;;19.98;47.55;99766.31;4491144;31;34265;-83
2022/06/24 01:43:03;;;;;;;1.60;1.30;;;;;;;19.92;47.49;99767.69;4466014;31;32691;-83
2022/06/24 01:45:31;;;;;;;3.70;1.90;;;;;;;19.96;47.16;99758.41;4481521;31;33753;-83
2022/06/24 01:47:59;;;;;;;5.70;1.92;;;;;;;19.97;46.75;99762.78;4492988;31;33326;-83
2022/06/24 01:50:27;;;;;;;3.72;2.08;;;;;;;19.85;47.30;99756.63;4462543;32;33237;-83
2022/06/24 01:52:55;;;;;;;2.78;1.65;;;;;;;19.87;46.56;99753.81;4477936;31;33154;-84
2022/06/24 01:55:22;;;;;;;4.32;1.77;;;;;;;19.93;46.39;99753.31;4476928;31;34085;-84
2022/06/24 01:57:51;;;;;;;1.98;1.70;;;;;;;19.88;46.82;99755.50;4476978;31;33635;-84
2022/06/24 02:00:19;;;;;;;2.78;1.98;;;;;;;19.96;46.05;99747.69;4476617;31;32708;-84
2022/06/24 02:02:47;;;;;;;2.70;1.77;;;;;;;19.52;47.38;99757.53;4488748;31;33006;-84
2022/06/24 02:05:15;;;;;;;2.67;1.83;;;;;;;19.87;46.14;99748.47;4478151;31;33880;-84
2022/06/24 02:07:43;;;;;;;5.22;2.00;;;;;;;19.37;47.76;99750.72;4477448;31;33262;-84
2022/06/24 02:15:46;;;;;;;3.03;1.62;;;;;;;19.98;43.58;99761.81;4478626;31;32911;-84
2022/06/24 02:18:13;;;;;;;3.65;2.20;;;;;;;20.35;42.73;99756.03;4489699;31;33194;-85
2022/06/24 02:20:41;;;;;;;3.10;2.08;;;;;;;20.43;42.47;99761.59;4489979;31;33647;-85
2022/06/24 02:23:12;;;;;;;3.20;1.67;;;;;;;20.43;42.35;99750.88;4478046;31;33011;-84
2022/06/24 02:25:40;;;;;;;3.05;1.77;;;;;;;20.48;42.23;99745.16;4493143;31;33332;-83
2022/06/24 02:28:08;;;;;;;7.03;1.70;;;;;;;20.71;41.53;99747.56;4489628;31;34768;-84
2022/06/24 02:30:37;;;;;;;7.15;1.70;;;;;;;20.59;41.85;99751.28;4477495;31;33540;-84
2022/06/24 02:33:07;;;;;;;2.45;2.15;;;;;;;20.64;42.44;99753.56;4476247;31;35047;-83
2022/06/24 02:35:36;;;;;;;2.58;1.52;;;;;;;20.63;42.60;99751.88;4488828;31;33744;-83
2022/06/24 02:38:05;;;;;;;3.05;1.73;;;;;;;20.71;42.13;99755.59;4482381;31;34734;-83
2022/06/24 02:40:45;;;;;;;4.50;1.77;;;;;;;20.71;42.79;99755.59;4478874;31;33639;-83
2022/06/24 02:43:18;;;;;;;2.85;1.90;;;;;;;20.57;43.23;99755.94;4490696;31;33773;-84
2022/06/24 02:45:47;;;;;;;5.55;1.77;;;;;;;20.19;45.35;99764.53;4479705;31;31998;-84
2022/06/24 02:48:17;;;;;;;2.92;1.50;;;;;;;20.49;44.50;99771.84;4492365;31;32682;-84
2022/06/24 02:50:53;;;;;;;4.22;1.70;;;;;;;20.23;45.21;99770.50;4483555;31;32517;-84
2022/06/24 02:53:22;;;;;;;8.48;2.15;;;;;;;20.38;44.35;99761.16;4494693;31;32258;-84
2022/06/24 02:55:53;;;;;;;4.70;2.22;;;;;;;20.38;44.14;99763.84;4485738;31;34425;-84
2022/06/24 02:58:21;;;;;;;3.58;1.37;;;;;;;20.14;45.35;99756.03;4486980;31;33925;-84
2022/06/24 03:00:50;;;;;;;3.40;1.52;;;;;;;20.13;44.89;99765.91;4463001;31;32941;-84
2022/06/24 03:03:19;;;;;;;1.52;1.35;;;;;;;20.10;44.61;99766.16;4469252;31;32779;-84
2022/06/24 03:05:48;;;;;;;6.12;1.45;;;;;;;20.11;45.20;99762.47;4479820;31;33189;-84
2022/06/24 03:08:17;;;;;;;4.70;1.92;;;;;;;20.25;43.94;99764.00;4480337;31;33301;-84
2022/06/24 03:10:45;;;;;;;6.22;2.05;;;;;;;20.20;44.37;99769.75;4480051;31;33427;-83
2022/06/24 03:13:13;;;;;;;2.75;1.60;;;;;;;20.29;44.29;99769.97;4478945;31;33393;-83
2022/06/24 03:15:43;;;;;;;1.48;1.23;;;;;;;20.23;43.58;99768.66;4466042;32;32984;-83
2022/06/24 03:18:14;;;;;;;3.95;1.65;;;;;;;20.33;43.26;99771.41;4493859;31;33997;-84
2022/06/24 03:20:42;;;;;;;2.62;1.70;;;;;;;20.50;42.95;99772.69;4479204;31;33862;-83
2022/06/24 03:23:14;;;;;;;3.58;1.80;;;;;;;20.60;42.90;99773.59;4491812;31;33026;-83
2022/06/24 03:25:43;;;;;;;2.20;1.17;;;;;;;20.52;42.63;99774.25;4487778;31;33945;-83
2022/06/24 03:28:11;;;;;;;4.70;1.77;;;;;;;20.57;42.46;99774.72;4491417;31;33970;-84
2022/06/24 03:30:39;;;;;;;4.07;1.42;;;;;;;20.43;43.44;99773.19;4478408;31;33233;-83
2022/06/24 03:33:08;;;;;;;2.58;1.87;;;;;;;20.75;42.89;99766.03;4478791;31;33256;-84
2022/06/24 03:35:35;;;;;;;3.05;1.55;;;;;;;20.76;42.58;99767.78;4476816;31;33242;-83
2022/06/24 03:38:03;;;;;;;3.37;1.48;;;;;;;20.83;42.68;99768.94;4479069;31;33659;-83
2022/06/24 03:40:31;;;;;;;6.15;1.83;;;;;;;21.01;42.15;99767.31;4466719;31;32874;-83
2022/06/24 03:42:59;;;;;;;5.53;2.17;;;;;;;21.09;42.13;99775.56;4481690;31;32767;-83
2022/06/24 03:45:27;;;;;;;2.17;1.60;;;;;;;21.27;41.76;99777.59;4465606;31;32316;-84
2022/06/24 03:47:56;;;;;;;2.67;1.42;;;;;;;21.31;42.05;99773.69;4467403;31;33444;-84
2022/06/24 03:50:24;;;;;;;2.45;1.37;;;;;;;21.32;41.98;99775.41;4488894;31;32227;-83
2022/06/24 03:52:52;;;;;;;3.65;2.03;;;;;;;21.50;41.53;99779.13;4479571;31;32307;-84
2022/06/24 03:55:20;;;;;;;4.97;1.60;;;;;;;21.67;40.97;99777.63;4477898;31;35155;-84
2022/06/24 03:57:48;;;;;;;2.70;1.55;;;;;;;21.97;40.48;99766.75;4490327;31;34721;-84
2022/06/24 04:00:16;;;;;;;3.62;1.67;;;;;;;21.91;40.84;99770.00;4490714;31;33303;-84
2022/06/24 04:02:44;;;;;;;2.53;1.40;;;;;;;22.12;40.26;99783.34;4482030;31;32639;-84
2022/06/24 04:05:14;;;;;;;2.70;1.75;;;;;;;22.22;40.51;99776.16;4490635;31;33733;-84
2022/06/24 04:07:42;;;;;;;2.83;1.42;;;;;;;22.30;40.73;99778.09;4478474;31;34113;-84
2022/06/24 04:10:10;;;;;;;1.42;1.25;;;;;;;22.36;40.61;99782.94;4488296;31;33836;-84
2022/06/24 04:12:38;;;;;;;3.40;1.80;;;;;;;22.45;40.60;99784.75;4477995;31;33129;-84
2022/06/24 04:15:17;;;;;;;7.43;1.90;;;;;;;22.66;40.06;99784.59;4475790;31;33459;-84
2022/06/24 04:17:47;;;;;;;3.87;1.60;;;;;;;22.78;39.82;99784.41;4494103;31;34329;-84
2022/06/24 04:20:17;;;;;;;2.90;1.85;;;;;;;22.56;40.19;99789.13;4493414;31;34232;-84
2022/06/24 04:22:48;;;;;;;2.65;1.90;;;;;;;22.89;39.64;99784.28;4479671;31;34020;-84
2022/06/24 04:25:16;;;;;;;2.58;1.80;;;;;;;22.99;39.47;99785.09;4471213;31;33073;-84
2022/06/24 04:27:44;;;;;;;3.12;2.17;;;;;;;23.06;38.62;99788.88;4466258;31;32976;-84
2022/06/24 04:30:13;;;;;;;1.45;1.33;;;;;;;23.12;38.93;99785.63;4481823;31;32933;-84
2022/06/24 04:32:42;;;;;;;6.50;1.65;;;;;;;23.43;38.62;99777.25;4477597;31;33126;-84
2022/06/24 04:35:11;;;;;;;3.83;1.40;;;;;;;23.47;38.85;99778.66;4481026;31;33034;-84
2022/06/24 04:37:40;;;;;;;3.80;2.42;;;;;;;23.58;38.57;99781.13;4488796;31;33380;-84
2022/06/24 04:40:12;;;;;;;2.85;1.33;;;;;;;23.67;38.47;99787.50;4479182;31;32625;-84
2022/06/24 04:42:41;;;;;;;2.50;1.83;;;;;;;23.32;39.16;99793.63;4480271;31;33249;-84
2022/06/24 04:45:09;;;;;;;1.92;1.62;;;;;;;23.68;38.40;99778.41;4471228;31;33334;-85
2022/06/24 04:47:38;;;;;;;2.05;1.75;;;;;;;23.99;38.24;99785.16;4492973;31;34653;-85
2022/06/24 04:50:09;;;;;;;2.00;1.45;;;;;;;24.09;37.07;99779.69;4479261;31;32003;-85
2022/06/24 04:52:38;;;;;;;2.08;1.48;;;;;;;23.65;38.56;99787.66;4476670;31;33131;-85
2022/06/24 04:55:07;;;;;;;2.30;2.10;;;;;;;23.49;38.79;99792.81;4456078;31;33904;-85
2022/06/24 04:57:35;;;;;;;6.35;2.08;;;;;;;23.64;37.56;99794.06;4483184;31;33630;-85
2022/06/24 05:00:04;;;;;;;3.17;2.17;;;;;;;23.66;37.84;99789.34;4468028;31;32764;-85
2022/06/24 05:02:33;;;;;;;4.00;2.22;;;;;;;23.96;37.06;99790.84;4475827;31;32072;-85
2022/06/24 05:05:03;;;;;;;3.08;1.73;;;;;;;24.23;36.16;99787.22;4476673;31;34207;-85
2022/06/24 05:07:31;;;;;;;3.60;1.67;;;;;;;24.46;36.12;99790.34;4478185;32;35318;-85
2022/06/24 05:10:01;;;;;;;2.90;2.15;;;;;;;24.15;36.04;99789.84;4494574;31;34191;-85
2022/06/24 05:12:30;;;;;;;3.25;1.50;;;;;;;24.17;36.50;99782.47;4468327;31;33026;-85
2022/06/24 05:15:00;;;;;;;4.97;1.30;;;;;;;24.16;36.27;99780.75;4456715;31;32322;-85
2022/06/24 05:17:29;;;;;;;5.32;1.83;;;;;;;24.14;36.47;99782.75;4476713;31;32417;-85
2022/06/24 05:19:59;;;;;;;8.55;1.58;;;;;;;24.34;36.05;99782.59;4479939;31;33026;-86
2022/06/24 05:22:27;;;;;;;3.37;1.90;;;;;;;24.23;35.78;99786.38;4480669;31;33434;-85
2022/06/24 05:24:57;;;;;;;2.87;1.60;;;;;;;24.28;37.14;99786.78;4480526;31;34139;-86
2022/06/24 05:27:34;;;;;;;3.85;1.73;;;;;;;23.87;36.35;99790.91;4480264;31;33322;-86
2022/06/24 05:30:03;;;;;;;1.73;1.23;;;;;;;24.26;36.07;99780.69;4475041;31;34058;-85
2022/06/24 05:32:40;;;;;;;4.55;1.60;;;;;;;24.50;36.16;99790.88;4478603;31;32355;-85
2022/06/24 05:35:13;;;;;;;3.10;1.40;;;;;;;24.34;35.54;99788.00;4476642;31;32957;-85
2022/06/24 05:37:41;;;;;;;3.28;1.65;;;;;;;24.48;36.25;99780.22;4487535;31;34290;-85
2022/06/24 05:40:11;;;;;;;3.67;2.20;;;;;;;24.92;35.99;99790.13;4475375;31;33027;-85
2022/06/24 05:42:40;;;;;;;4.80;2.00;;;;;;;24.99;35.99;99802.84;4487895;31;33815;-84
2022/06/24 05:45:09;;;;;;;7.20;1.50;;;;;;;25.03;35.15;99800.69;4489806;31;33531;-84
2022/06/24 05:47:39;;;;;;;7.22;2.40;;;;;;;24.89;35.43;99798.56;4489136;31;34571;-86
2022/06/24 05:50:08;;;;;;;4.32;1.87;;;;;;;25.01;35.05;99795.44;4460038;31;33491;-85
2022/06/24 05:55:31;;;;;;;6.50;1.83;;;;;;;25.16;34.25;99800.25;4487583;31;33709;-85
2022/06/24 05:58:02;;;;;;;14.43;2.00;;;;;;;25.29;34.68;99798.81;4475359;31;33511;-84
2022/06/24 06:00:42;;;;;;;3.40;1.50;;;;;;;25.27;34.33;99800.00;4486673;31;32810;-85
2022/06/24 06:03:13;;;;;;;7.03;1.95;;;;;;;25.34;35.11;99800.19;4482065;31;31625;-88
2022/06/24 06:05:41;;;;;;;4.72;2.30;;;;;;;25.37;34.20;99797.19;4466326;31;32703;-88
2022/06/24 06:08:11;;;;;;;5.25;1.50;;;;;;;25.42;34.64;99800.25;4500108;31;33896;-87
2022/06/24 06:10:44;;;;;;;1.77;1.58;;;;;;;25.58;34.91;99794.87;4488006;31;33403;-88
2022/06/24 06:13:13;;;;;;;5.47;1.83;;;;;;;25.67;34.37;99788.50;4474442;32;33794;-88
2022/06/24 06:15:42;;;;;;;11.73;1.70;;;;;;;25.84;33.08;99788.59;4476481;31;32360;-87
2022/06/24 06:18:10;;;;;;;8.10;1.90;;;;;;;25.73;35.17;99793.25;4466230;31;33299;-87
2022/06/24 06:20:40;;;;;;;2.87;1.67;;;;;;;25.50;33.52;99786.75;4474392;31;33122;-88
2022/06/24 06:23:13;;;;;;;6.22;1.75;;;;;;;25.70;33.69;99787.34;4467054;31;32645;-88
2022/06/24 06:25:43;;;;;;;4.68;1.55;;;;;;;25.53;33.62;99787.25;4482382;31;33117;-89
2022/06/24 06:28:12;;;;;;;7.12;1.87;;;;;;;26.00;33.64;99786.75;4475718;31;33432;-88
2022/06/24 06:30:40;;;;;;;3.30;1.75;;;;;;;26.31;33.28;99786.13;4480319;31;32606;-90
2022/06/24 06:33:10;;;;;;;2.12;1.67;;;;;;;26.18;33.02;99780.34;4468610;31;33039;-90
2022/06/24 06:35:39;;;;;;;3.53;1.95;;;;;;;26.38;34.32;99780.84;4477532;31;34411;-87
2022/06/24 06:38:08;;;;;;;4.78;1.70;;;;;;;26.33;33.10;99791.34;4464433;31;33252;-88
2022/06/24 06:40:37;;;;;;;6.85;1.50;;;;;;;26.25;32.52;99776.81;4475975;31;33368;-88
2022/06/24 06:43:09;;;;;;;2.72;1.45;;;;;;;26.77;32.39;99781.88;4485273;31;33501;-88
2022/06/24 06:45:39;;;;;;;2.97;1.55;;;;;;;26.46;32.88;99779.03;4489561;31;33606;-87
2022/06/24 06:48:15;;;;;;;5.07;1.45;;;;;;;26.53;33.17;99784.59;4479237;31;32863;-87
2022/06/24 06:50:45;;;;;;;3.58;1.70;;;;;;;26.65;32.77;99771.56;4471697;31;32655;-87
2022/06/24 06:53:14;;;;;;;3.00;1.35;;;;;;;26.61;32.50;99771.06;4465459;31;32329;-86
2022/06/24 06:55:42;;;;;;;6.10;2.12;;;;;;;26.77;32.64;99771.03;4463420;31;32554;-88
2022/06/24 06:58:15;;;;;;;4.62;1.85;;;;;;;26.93;33.45;99772.87;4474209;31;33421;-89
2022/06/24 07:00:44;;;;;;;5.37;1.80;;;;;;;26.94;32.15;99765.59;4479954;31;31950;-89
2022/06/24 07:03:12;;;;;;;5.53;2.22;;;;;;;26.85;32.26;99777.47;4466539;31;32727;-88
2022/06/24 07:05:44;;;;;;;2.55;1.42;;;;;;;26.97;32.06;99762.56;4475224;31;34244;-89
2022/06/24 07:08:13;;;;;;;7.45;1.90;;;;;;;27.24;31.00;99767.56;4477878;31;33083;-88
2022/06/24 07:10:44;;;;;;;5.12;1.60;;;;;;;27.60;31.28;99761.62;4492223;31;33355;-89
2022/06/24 07:13:13;;;;;;;13.10;2.20;;;;;;;27.65;31.06;99769.25;4478421;31;33109;-89
2022/06/24 07:15:43;;;;;;;13.07;2.30;;;;;;;27.69;30.48;99766.00;4488623;31;34538;-88
2022/06/24 07:18:11;;;;;;;10.48;1.83;;;;;;;27.74;30.48;99760.91;4479948;31;33953;-89
2022/06/24 07:20:43;;;;;;;7.15;1.77;;;;;;;27.74;30.76;99758.19;4479476;31;33622;-89
2022/06/24 07:23:17;;;;;;;3.53;1.40;;;;;;;27.71;31.04;99755.84;4491008;31;33150;-88
2022/06/24 07:25:46;;;;;;;6.50;1.85;;;;;;;27.45;29.40;99768.84;4466027;31;32526;-89
2022/06/24 07:28:15;;;;;;;1.37;1.27;;;;;;;27.61;29.89;99755.19;4476014;31;32649;-89
2022/06/24 07:30:52;;;;;;;2.75;1.52;;;;;;;27.61;28.93;99755.19;4489936;31;32802;-89
2022/06/24 07:33:22;;;;;;;1.27;1.00;;;;;;;27.85;28.17;99759.66;4465143;31;34190;-89
2022/06/24 07:35:52;;;;;;;3.28;1.55;;;;;;;27.89;29.35;99761.00;4477493;31;33145;-89
2022/06/24 07:38:20;;;;;;;3.55;1.60;;;;;;;28.22;28.13;99755.31;4469359;31;32552;-89
2022/06/24 07:40:51;;;;;;;3.10;1.30;;;;;;;27.98;27.74;99765.34;4478888;31;34000;-89
2022/06/24 07:43:21;;;;;;;3.20;1.40;;;;;;;27.80;27.95;99757.47;4490459;31;33419;-88
2022/06/24 07:45:54;;;;;;;2.50;1.23;;;;;;;28.02;27.49;99750.37;4477752;31;32746;-90
2022/06/24 07:48:23;;;;;;;2.15;1.20;;;;;;;28.52;27.20;99750.84;4479040;31;33119;-89
2022/06/24 07:50:52;;;;;;;1.95;1.30;;;;;;;28.67;27.40;99754.44;4492031;31;32988;-88
2022/06/24 07:53:22;;;;;;;2.17;1.25;;;;;;;28.38;28.44;99741.63;4490430;31;32797;-87
2022/06/24 07:58:37;;;;;;;3.87;1.58;;;;;;;28.96;27.26;99733.78;4489956;31;34331;-88
2022/06/24 08:01:09;;;;;;;1.40;1.17;;;;;;;29.27;27.31;99728.16;4476050;31;32817;-88
2022/06/24 08:03:38;;;;;;;3.78;1.42;;;;;;;29.04;28.98;99736.41;4476983;31;32853;-88
2022/06/24 08:06:07;;;;;;;3.17;1.30;;;;;;;29.15;27.28;99733.22;4476975;31;32952;-88
2022/06/24 08:08:36;;;;;;;2.12;1.37;;;;;;;29.05;26.60;99733.50;4478270;31;33122;-88
2022/06/24 08:13:41;;;;;;;2.35;1.08;;;;;;;29.30;25.23;99734.06;4481871;31;32735;-88
2022/06/24 08:16:11;;;;;;;2.60;1.55;;;;;;;29.68;24.98;99727.63;4488113;31;33170;-88
2022/06/24 08:18:41;;;;;;;2.72;1.55;;;;;;;29.68;25.36;99731.19;4488176;31;33622;-88
2022/06/24 08:21:12;;;;;;;1.90;1.30;;;;;;;29.99;25.98;99732.75;4482761;31;33261;-88
2022/06/24 08:23:41;;;;;;;1.62;1.30;;;;;;;29.79;25.48;99727.94;4475576;31;32421;-88
2022/06/24 08:26:10;;;;;;;1.80;1.33;;;;;;;30.03;25.48;99717.72;4478232;31;33108;-89
2022/06/24 08:28:38;;;;;;;1.40;1.20;;;;;;;30.51;23.88;99720.66;4480604;31;33537;-88
2022/06/24 08:31:06;;;;;;;1.23;1.10;;;;;;;30.41;26.61;99728.34;4486093;31;32016;-89
2022/06/24 08:33:35;;;;;;;2.37;1.15;;;;;;;30.56;26.69;99729.09;4489122;31;33062;-89
2022/06/24 08:36:07;;;;;;;2.80;1.30;;;;;;;30.06;25.73;99730.97;4487135;31;33371;-88
2022/06/24 08:38:41;;;;;;;2.47;1.35;;;;;;;30.21;25.68;99734.47;4468771;31;31091;-89
2022/06/24 08:41:09;;;;;;;5.32;1.50;;;;;;;31.07;24.91;99726.09;4487509;31;33418;-87
2022/06/24 08:43:47;;;;;;;2.97;1.55;;;;;;;30.81;24.20;99722.19;4475842;31;33249;-88
2022/06/24 08:46:18;;;;;;;6.78;1.40;;;;;;;30.70;24.46;99722.69;4489188;31;33526;-88
2022/06/24 08:48:51;;;;;;;1.83;1.63;;;;;;;30.77;24.86;99730.97;4485958;31;33482;-88
2022/06/24 08:51:20;;;;;;;2.42;1.50;;;;;;;31.08;23.59;99719.59;4478572;31;32683;-88
2022/06/24 08:53:56;;;;;;;3.72;1.17;;;;;;;30.83;25.64;99722.81;4475753;31;32400;-88
2022/06/24 08:56:46;;;;;;;2.72;1.10;;;;;;;31.10;23.94;99714.81;4476059;31;33447;-87
2022/06/24 08:59:16;;;;;;;2.40;1.27;;;;;;;30.90;24.69;99713.84;4481762;31;34294;-88
2022/06/24 09:01:50;;;;;;;2.47;1.40;;;;;;;31.10;25.30;99715.66;4477829;31;33306;-88
2022/06/24 09:04:26;;;;;;;2.08;1.05;;;;;;;30.87;24.40;99708.81;4479646;31;32066;-88
2022/06/24 09:06:55;;;;;;;3.53;1.17;;;;;;;31.03;24.21;99714.75;4477962;31;33250;-87
2022/06/24 09:09:24;;;;;;;3.40;1.20;;;;;;;30.87;25.78;99711.53;4477782;31;32594;-87
2022/06/24 09:11:57;;;;;;;2.83;1.02;;;;;;;30.67;24.68;99704.03;4477211;31;316612;-88
2022/06/24 09:14:48;;;;;;;2.33;1.17;;;;;;;30.68;27.05;99705.72;4489507;31;33001;-88
2022/06/24 09:17:16;;;;;;;4.47;1.05;;;;;;;30.59;24.01;99715.94;4476637;31;34595;-88
2022/06/24 09:19:45;;;;;;;3.33;1.25;;;;;;;30.67;24.41;99720.38;4465223;31;32403;-88
2022/06/24 09:22:34;;;;;;;5.62;1.37;;;;;;;31.04;23.44;99715.59;4494558;31;31880;-87
2022/06/24 09:25:05;;;;;;;4.50;1.20;;;;;;;30.98;24.09;99705.50;4485270;31;32885;-88
2022/06/24 09:27:43;;;;;;;4.68;1.40;;;;;;;31.10;22.98;99699.28;4491037;31;32676;-88
2022/06/24 09:30:15;;;;;;;2.33;1.12;;;;;;;30.97;25.74;99698.38;4496601;31;33104;-88
2022/06/24 09:32:51;;;;;;;1.52;1.25;;;;;;;31.21;27.65;99703.31;4464612;31;32712;-88
2022/06/24 09:35:39;;;;;;;1.83;1.08;;;;;;;31.75;24.55;99699.72;4486847;31;33336;-88
2022/06/24 09:38:07;;;;;;;1.17;1.00;;;;;;;32.10;24.99;99696.87;4475941;31;33326;-87
2022/06/24 09:40:36;;;;;;;1.45;1.17;;;;;;;31.86;22.77;99701.91;4481542;31;33461;-87
2022/06/24 09:43:13;;;;;;;;;;;;;;;31.89;22.59;99697.06;4479519;31;32918;-88
2022/06/24 09:45:52;;;;;;;2.58;1.50;;;;;;;31.87;23.25;99700.00;4476988;31;32001;-88
2022/06/24 09:48:29;;;;;;;3.53;1.40;;;;;;;32.15;23.18;99697.09;4472860;31;33553;-87
2022/06/24 09:51:03;;;;;;;6.87;1.20;;;;;;;31.99;23.03;99692.03;4489384;31;33767;-88
2022/06/24 09:53:40;;;;;;;8.13;1.55;;;;;;;32.19;22.55;99695.63;4488432;31;34323;-88
2022/06/24 09:56:11;;;;;;;0.80;0.80;;;;;;;31.92;22.67;99693.91;4471972;31;32619;-88
2022/06/24 10:00:40;;;;;;;7.28;2.60;;;;;;;32.31;21.65;99693.94;4473290;31;33283;-88
2022/06/24 10:01:36;;;;;;;1.58;1.00;;;;;;;32.47;21.52;99689.09;4475434;31;33725;-88
2022/06/24 10:04:09;;;;;;;3.05;1.10;;;;;;;31.84;21.84;99686.75;4462170;31;35420;-88
2022/06/24 10:06:38;;;;;;;8.25;1.33;;;;;;;32.24;23.31;99695.84;4482394;31;32283;-88
2022/06/24 10:09:08;;;;;;;5.62;1.55;;;;;;;32.27;22.71;99695.41;4468884;31;34399;-88
2022/06/24 10:11:40;;;;;;;3.55;1.33;;;;;;;32.09;24.11;99686.97;4460299;31;33757;-88
2022/06/24 10:14:12;;;;;;;2.42;1.20;;;;;;;32.49;21.05;99682.41;4487510;31;33895;-88
2022/06/24 10:19:24;;;;;;;1.80;1.20;;;;;;;32.67;23.23;99673.53;4475301;31;33147;-88
2022/06/24 10:21:54;;;;;;;2.62;1.40;;;;;;;32.57;21.36;99673.97;4461397;31;34381;-88
2022/06/24 10:24:22;;;;;;;2.42;1.67;;;;;;;32.44;22.49;99668.53;4472335;31;34222;-88
2022/06/24 10:26:52;;;;;;;2.05;1.10;;;;;;;33.09;22.41;99661.25;4471376;31;32763;-87
2022/06/24 10:29:24;;;;;;;5.30;1.17;;;;;;;32.60;21.87;99656.28;4474170;31;33209;-88
2022/06/24 10:31:54;;;;;;;2.10;1.48;;;;;;;33.32;21.65;99644.25;4459707;31;31667;-88
2022/06/24 10:34:29;;;;;;;12.18;1.60;;;;;;;32.80;21.73;99645.31;4472636;31;34561;-88
2022/06/24 10:37:09;;;;;;;3.80;1.25;;;;;;;32.72;23.85;99648.28;4484848;31;32796;-88
2022/06/24 10:39:49;;;;;;;4.07;1.10;;;;;;;33.11;20.44;99637.22;4490921;31;32587;-88
2022/06/24 10:42:22;;;;;;;2.00;1.37;;;;;;;33.18;20.93;99637.19;4482710;31;32690;-88
2022/06/24 10:45:02;;;;;;;1.23;1.10;;;;;;;32.92;22.32;99635.41;4469552;31;33237;-88
2022/06/24 10:47:34;;;;;;;4.10;1.33;;;;;;;32.77;21.28;99635.66;4484606;31;31865;-88
2022/06/24 10:50:02;;;;;;;2.50;1.33;;;;;;;33.02;22.13;99637.69;4494058;31;32471;-88
2022/06/24 10:52:37;;;;;;;2.40;1.52;;;;;;;32.94;21.11;99636.03;4486447;31;33381;-88
2022/06/24 10:55:20;;;;;;;3.47;1.25;;;;;;;33.21;22.99;99628.56;4487054;31;33133;-87
2022/06/24 10:57:52;;;;;;;1.40;1.30;;;;;;;33.54;21.08;99627.56;4486729;31;32962;-87
2022/06/24 11:00:23;;;;;;;1.62;1.17;;;;;;;33.73;20.29;99623.84;4488953;31;34167;-88
2022/06/24 11:03:05;;;;;;;1.37;1.08;;;;;;;33.63;20.06;99618.03;4479490;31;33552;-87
2022/06/24 11:05:41;;;;;;;3.40;1.15;;;;;;;33.19;20.80;99624.34;4489847;31;31913;-87
2022/06/24 11:08:25;;;;;;;2.05;1.10;;;;;;;32.99;20.54;99621.69;4478093;31;33539;-87
2022/06/24 11:10:55;;;;;;;3.60;1.33;;;;;;;32.93;21.24;99623.41;4486698;31;33093;-87
2022/06/24 11:13:24;;;;;;;2.47;1.25;;;;;;;32.91;21.40;99625.53;4481043;31;36078;-87
2022/06/24 11:15:58;;;;;;;1.75;1.30;;;;;;;33.16;21.26;99611.94;4483500;31;33196;-87
2022/06/24 11:18:33;;;;;;;2.65;1.08;;;;;;;33.14;21.08;99608.62;4483537;31;34029;-87
2022/06/24 11:21:08;;;;;;;3.95;0.98;;;;;;;33.63;20.42;99601.59;4490411;31;34128;-88
2022/06/24 11:26:22;;;;;;;1.27;1.17;;;;;;;33.15;22.38;99588.41;4488486;31;34010;-88
2022/06/24 11:28:55;;;;;;;3.03;1.40;;;;;;;33.51;21.80;99586.94;4479111;31;32399;-87
2022/06/24 11:31:25;;;;;;;3.60;1.10;;;;;;;33.35;20.35;99583.63;4478236;31;34219;-87
2022/06/24 11:34:04;;;;;;;2.62;1.20;;;;;;;33.01;21.33;99586.78;4480861;31;34186;-87
2022/06/24 11:36:33;;;;;;;1.50;0.90;;;;;;;32.97;20.70;99591.84;4486213;31;33340;-88
2022/06/24 11:39:06;;;;;;;1.90;1.27;;;;;;;32.78;21.14;99590.84;4474694;31;32170;-87
2022/06/24 11:41:36;;;;;;;4.60;1.33;;;;;;;33.06;22.04;99592.44;4468099;31;33194;-87
2022/06/24 11:44:39;;;;;;;3.47;1.05;;;;;;;33.49;19.66;99578.94;4486394;31;34514;-88
2022/06/24 11:47:11;;;;;;;1.52;1.00;;;;;;;33.75;20.10;99577.88;4476525;31;32412;-87
2022/06/24 11:49:48;;;;;;;2.70;1.55;;;;;;;33.45;22.90;99574.13;4486649;31;33915;-87
2022/06/24 11:52:18;;;;;;;2.37;1.02;;;;;;;33.53;19.66;99568.41;4487218;31;33772;-88
2022/06/24 11:54:48;;;;;;;1.80;1.10;;;;;;;33.82;21.89;99577.84;4474835;31;33224;-87
2022/06/24 11:57:21;;;;;;;6.10;1.20;;;;;;;33.89;20.21;99573.13;4475142;31;34060;-86
2022/06/24 12:02:38;;;;;;;5.50;1.42;;;;;;;33.87;19.73;99558.84;4480137;31;33135;-87
2022/06/24 12:05:08;;;;;;;3.22;0.80;;;;;;;34.33;19.65;99554.84;4476315;31;32544;-88
2022/06/24 12:07:38;;;;;;;0.90;0.90;;;;;;;34.51;20.20;99548.53;4490172;31;32437;-87
2022/06/24 12:10:07;;;;;;;2.05;1.10;;;;;;;33.91;19.64;99548.28;4481102;31;31437;-88
2022/06/24 12:12:59;;;;;;;2.78;1.67;;;;;;;34.34;18.85;99543.66;4468476;31;33055;-87
2022/06/24 12:15:35;;;;;;;2.87;1.25;;;;;;;34.05;19.63;99541.66;4484757;31;33750;-87